createdAt,value
2023-01-08T00:01:21.682Z,69.73
2023-01-08T00:03:54.655Z,69.05
2023-01-08T00:06:27.683Z,69.56
2023-01-08T00:08:59.260Z,69.36
2023-01-08T00:11:40.768Z,68.92
2023-01-08T00:14:15.123Z,70.17
2023-01-08T00:16:46.690Z,70.17
2023-01-08T00:19:23.374Z,69.10
2023-01-08T00:21:55.467Z,70.51
2023-01-08T00:24:27.438Z,70.29
2023-01-08T00:27:04.244Z,69.99
2023-01-08T00:29:37.674Z,70.15
2023-01-08T00:32:15.319Z,70.69
2023-01-08T00:34:48.632Z,70.56
2023-01-08T00:37:20.860Z,69.49
2023-01-08T00:39:53.342Z,70.52
2023-01-08T00:42:28.233Z,68.89
2023-01-08T00:45:00.513Z,69.94
2023-01-08T00:47:32.735Z,69.01
2023-01-08T00:50:05.406Z,69.76
2023-01-08T00:53:04.749Z,70.46
2023-01-08T00:55:37.459Z,70.01
2023-01-08T00:58:12.211Z,70.45
2023-01-08T01:00:46.229Z,70.77
2023-01-08T01:03:18.702Z,70.55
2023-01-08T01:05:51.043Z,70.05
2023-01-08T01:08:22.853Z,70.07
2023-01-08T01:10:54.891Z,69.78
2023-01-08T01:13:31.835Z,70.18
2023-01-08T01:16:05.231Z,70.59
2023-01-08T01:18:37.152Z,69.10
2023-01-08T01:21:15.269Z,69.67
2023-01-08T01:23:49.893Z,69.71
2023-01-08T01:26:24.129Z,71.21
2023-01-08T01:29:00.438Z,71.42
2023-01-08T01:31:34.551Z,70.33
2023-01-08T01:34:08.683Z,71.07
2023-01-08T01:36:41.180Z,71.85
2023-01-08T01:39:12.988Z,71.66
2023-01-08T01:41:47.528Z,71.89
2023-01-08T01:44:40.708Z,71.42
2023-01-08T01:47:23.951Z,72.74
2023-01-08T01:50:07.499Z,71.49
2023-01-08T01:53:02.749Z,71.29
2023-01-08T01:55:35.505Z,73.29
2023-01-08T01:58:12.657Z,72.46
2023-01-08T02:00:47.739Z,73.84
2023-01-08T02:03:21.590Z,73.53
2023-01-08T02:05:58.348Z,72.05
2023-01-08T02:08:39.101Z,72.35
2023-01-08T02:11:14.437Z,71.90
2023-01-08T02:13:54.070Z,71.78
2023-01-08T02:16:38.440Z,72.98
2023-01-08T02:19:22.499Z,72.17
2023-01-08T02:22:06.060Z,72.46
2023-01-08T02:24:51.692Z,72.72
2023-01-08T02:27:29.480Z,72.73
2023-01-08T02:30:03.351Z,72.94
2023-01-08T02:32:40.808Z,72.89
2023-01-08T02:35:14.521Z,73.33
2023-01-08T02:37:46.958Z,73.59
2023-01-08T02:40:29.732Z,73.74
2023-01-08T02:43:12.393Z,75.89
2023-01-08T02:45:49.680Z,74.85
2023-01-08T02:48:32.671Z,75.50
2023-01-08T02:51:11.788Z,75.38
2023-01-08T02:53:48.186Z,74.39
2023-01-08T02:56:24.192Z,73.98
2023-01-08T02:59:01.930Z,74.85
2023-01-08T03:01:36.367Z,75.14
2023-01-08T03:04:15.640Z,74.86
2023-01-08T03:06:49.470Z,75.13
2023-01-08T03:09:22.260Z,75.33
2023-01-08T03:12:00.937Z,76.07
2023-01-08T03:14:40.570Z,75.63
2023-01-08T03:17:21.414Z,75.89
2023-01-08T03:19:56.999Z,75.56
2023-01-08T03:22:30.897Z,76.71
2023-01-08T03:25:03.772Z,76.26
2023-01-08T03:27:41.274Z,76.09
2023-01-08T03:30:18.088Z,76.83
2023-01-08T03:32:52.157Z,75.83
2023-01-08T03:35:27.842Z,74.99
2023-01-08T03:38:06.440Z,75.40
2023-01-08T03:40:44.191Z,75.46
2023-01-08T03:43:16.479Z,74.83
2023-01-08T03:45:53.571Z,75.35
2023-01-08T03:48:28.400Z,75.10
2023-01-08T03:51:00.411Z,74.98
2023-01-08T03:53:32.810Z,75.00
2023-01-08T03:56:04.791Z,74.87
2023-01-08T03:58:37.207Z,75.37
2023-01-08T04:01:12.182Z,75.95
2023-01-08T04:03:44.521Z,74.89
2023-01-08T04:06:16.440Z,75.20
2023-01-08T04:08:50.890Z,75.13
2023-01-08T04:11:23.279Z,75.72
2023-01-08T04:13:56.002Z,75.43
2023-01-08T04:16:31.924Z,75.14
2023-01-08T04:19:04.187Z,75.04
2023-01-08T04:21:36.111Z,75.77
2023-01-08T04:24:09.009Z,75.35
2023-01-08T04:26:41.119Z,75.42
2023-01-08T04:29:15.249Z,75.89
2023-01-08T04:31:50.082Z,75.31
2023-01-08T04:34:22.671Z,74.33
2023-01-08T04:36:54.660Z,75.21
2023-01-08T04:39:39.359Z,74.77
2023-01-08T04:42:11.511Z,74.84
2023-01-08T04:44:43.959Z,74.65
2023-01-08T04:47:18.899Z,73.82
2023-01-08T04:49:51.248Z,73.40
2023-01-08T04:52:23.489Z,73.67
2023-01-08T04:54:55.739Z,73.24
2023-01-08T04:57:28.045Z,73.93
2023-01-08T05:00:00.440Z,74.57
2023-01-08T05:02:35.502Z,75.57
2023-01-08T05:05:09.277Z,75.58
2023-01-08T05:07:41.438Z,74.94
2023-01-08T05:10:14.089Z,74.72
2023-01-08T05:12:46.408Z,73.96
2023-01-08T05:15:18.990Z,73.92
2023-01-08T05:18:01.840Z,74.08
2023-01-08T05:20:45.750Z,72.50
2023-01-08T05:23:17.888Z,73.07
2023-01-08T05:25:50.350Z,72.69
2023-01-08T05:31:09.305Z,72.92
2023-01-08T05:33:44.251Z,72.05
2023-01-08T05:36:16.597Z,71.85
2023-01-08T05:38:48.859Z,72.14
2023-01-08T05:41:21.240Z,72.43
2023-01-08T05:43:53.520Z,72.25
2023-01-08T05:46:25.835Z,71.54
2023-01-08T05:49:00.871Z,70.96
2023-01-08T05:51:33.081Z,70.53
2023-01-08T05:54:04.874Z,70.89
2023-01-08T05:56:37.011Z,69.99
2023-01-08T05:59:09.244Z,69.75
2023-01-08T06:01:41.240Z,70.28
2023-01-08T06:04:15.971Z,70.44
2023-01-08T06:06:48.138Z,69.61
2023-01-08T06:09:20.205Z,69.92
2023-01-08T06:11:53.549Z,68.65
2023-01-08T06:14:25.379Z,69.33
2023-01-08T06:16:58.126Z,68.56
2023-01-08T06:19:32.771Z,68.73
2023-01-08T06:22:04.720Z,68.15
2023-01-08T06:24:36.702Z,68.08
2023-01-08T06:27:08.920Z,67.71
2023-01-08T06:29:40.766Z,68.30
2023-01-08T06:32:12.839Z,68.57
2023-01-08T06:34:47.644Z,67.71
2023-01-08T06:37:19.740Z,67.35
2023-01-08T06:39:51.451Z,68.07
2023-01-08T06:42:23.491Z,68.31
2023-01-08T06:44:55.206Z,68.26
2023-01-08T06:47:27.380Z,67.72
2023-01-08T06:50:01.988Z,67.55
2023-01-08T06:52:34.330Z,68.26
2023-01-08T06:55:06.547Z,68.05
2023-01-08T06:57:41.790Z,67.78
2023-01-08T07:00:15.052Z,67.51
2023-01-08T07:02:47.351Z,67.81
2023-01-08T07:05:22.191Z,67.38
2023-01-08T07:07:54.519Z,67.68
2023-01-08T07:10:27.052Z,67.68
2023-01-08T07:12:59.141Z,66.48
2023-01-08T07:15:30.919Z,67.09
2023-01-08T07:18:03.009Z,66.95
2023-01-08T07:20:38.148Z,66.22
2023-01-08T07:23:13.100Z,65.83
2023-01-08T07:26:24.059Z,67.38
2023-01-08T07:28:56.498Z,67.51
2023-01-08T07:31:28.460Z,67.16
2023-01-08T07:34:46.659Z,68.14
2023-01-08T07:37:21.227Z,68.99
2023-01-08T07:39:53.686Z,68.23
2023-01-08T07:42:26.181Z,69.77
2023-01-08T07:45:13.537Z,70.55
2023-01-08T07:48:05.942Z,70.49
2023-01-08T07:50:41.532Z,71.00
2023-01-08T07:53:17.491Z,72.34
2023-01-08T07:55:49.840Z,72.47
2023-01-08T07:58:22.100Z,72.43
2023-01-08T08:00:54.644Z,73.45
2023-01-08T08:03:27.887Z,74.99
2023-01-08T08:06:02.765Z,74.65
2023-01-08T08:08:38.097Z,73.61
2023-01-08T08:11:10.391Z,73.98
2023-01-08T08:13:45.250Z,74.34
2023-01-08T08:16:17.717Z,74.50
2023-01-08T08:18:49.739Z,74.76
2023-01-08T08:21:23.635Z,75.74
2023-01-08T08:23:58.762Z,75.17
2023-01-08T08:26:31.032Z,75.73
2023-01-08T08:29:03.078Z,76.47
2023-01-08T08:31:35.865Z,76.09
2023-01-08T08:34:31.365Z,76.29
2023-01-08T08:37:03.946Z,76.07
2023-01-08T08:39:39.941Z,76.37
2023-01-08T08:42:12.589Z,76.05
2023-01-08T08:44:44.792Z,75.71
2023-01-08T08:47:17.472Z,75.42
2023-01-08T08:49:49.600Z,75.86
2023-01-08T08:52:54.214Z,74.63
2023-01-08T08:55:38.269Z,74.89
2023-01-08T08:58:13.505Z,75.86
2023-01-08T09:00:47.144Z,75.58
2023-01-08T09:03:19.925Z,74.85
2023-01-08T09:06:20.439Z,74.45
2023-01-08T09:08:52.879Z,73.96
2023-01-08T09:11:51.796Z,73.47
2023-01-08T09:14:24.423Z,74.30
2023-01-08T09:16:56.602Z,74.91
2023-01-08T09:19:29.019Z,73.47
2023-01-08T09:22:01.256Z,71.96
2023-01-08T09:24:34.211Z,72.00
2023-01-08T09:27:11.042Z,72.11
2023-01-08T09:29:43.670Z,72.98
2023-01-08T09:32:15.694Z,72.39
2023-01-08T09:34:48.332Z,73.11
2023-01-08T09:37:20.388Z,73.22
2023-01-08T09:40:01.638Z,73.31
2023-01-08T09:42:38.134Z,72.75
2023-01-08T09:45:23.697Z,73.93
2023-01-08T09:47:56.536Z,75.63
2023-01-08T09:50:32.331Z,74.72
2023-01-08T09:53:22.469Z,73.75
2023-01-08T09:56:12.563Z,73.12
2023-01-08T09:58:50.963Z,73.70
2023-01-08T10:01:26.518Z,75.29
2023-01-08T10:04:07.631Z,76.01
2023-01-08T10:06:39.964Z,75.83
2023-01-08T10:09:18.023Z,76.16
2023-01-08T10:11:53.451Z,75.45
2023-01-08T10:14:31.369Z,75.48
2023-01-08T10:17:11.527Z,76.89
2023-01-08T10:19:45.868Z,76.61
2023-01-08T10:22:29.863Z,76.59
2023-01-08T10:25:18.000Z,77.42
2023-01-08T10:27:54.707Z,78.66
2023-01-08T10:30:40.830Z,78.24
2023-01-08T10:33:24.788Z,78.99
2023-01-08T10:36:03.377Z,78.44
2023-01-08T10:38:41.578Z,78.91
2023-01-08T10:41:18.306Z,79.75
2023-01-08T10:44:00.465Z,80.02
2023-01-08T10:46:39.233Z,80.11
2023-01-08T10:49:28.267Z,79.94
2023-01-08T10:52:00.157Z,80.53
2023-01-08T10:54:40.983Z,80.86
2023-01-08T10:57:25.039Z,81.78
2023-01-08T11:00:03.411Z,81.41
2023-01-08T11:02:50.594Z,81.57
2023-01-08T11:05:25.736Z,81.04
2023-01-08T11:08:09.798Z,82.75
2023-01-08T11:10:41.706Z,80.42
2023-01-08T11:13:23.233Z,81.13
2023-01-08T11:16:07.239Z,79.98
2023-01-08T11:18:48.476Z,80.66
2023-01-08T11:21:27.560Z,79.61
2023-01-08T11:24:18.536Z,79.91
2023-01-08T11:26:57.908Z,79.87
2023-01-08T11:29:42.379Z,78.70
2023-01-08T11:32:32.664Z,77.86
2023-01-08T11:35:18.391Z,78.31
2023-01-08T11:37:58.703Z,78.38
2023-01-08T11:40:43.520Z,76.64
2023-01-08T11:43:29.023Z,78.52
2023-01-08T11:46:19.555Z,78.58
2023-01-08T11:49:29.137Z,77.01
2023-01-08T11:52:21.139Z,77.37
2023-01-08T11:55:12.593Z,78.48
2023-01-08T11:57:58.513Z,77.14
2023-01-08T12:00:45.323Z,77.24
2023-01-08T12:03:33.276Z,77.16
2023-01-08T12:06:16.713Z,76.56
2023-01-08T12:09:04.857Z,76.40
2023-01-08T12:11:44.376Z,77.30
2023-01-08T12:14:47.272Z,77.53
2023-01-08T12:17:58.980Z,77.39
2023-01-08T12:20:40.604Z,76.71
2023-01-08T12:23:29.176Z,75.13
2023-01-08T12:26:20.971Z,74.79
2023-01-08T12:29:22.830Z,75.53
2023-01-08T12:32:18.456Z,75.27
2023-01-08T12:34:59.059Z,74.88
2023-01-08T12:37:36.605Z,74.72
2023-01-08T12:40:18.473Z,74.52
2023-01-08T12:43:00.444Z,74.94
2023-01-08T12:45:38.572Z,74.69
2023-01-08T12:48:14.309Z,74.87
2023-01-08T12:50:57.061Z,75.07
2023-01-08T12:53:40.865Z,74.22
2023-01-08T12:56:20.478Z,74.96
2023-01-08T12:59:10.485Z,74.89
2023-01-08T13:01:50.952Z,74.01
2023-01-08T13:04:23.605Z,74.64
2023-01-08T13:07:03.453Z,74.51
2023-01-08T13:09:36.463Z,76.16
2023-01-08T13:12:09.262Z,75.82
2023-01-08T13:14:51.309Z,75.31
2023-01-08T13:17:27.669Z,75.48
2023-01-08T13:20:04.564Z,75.36
2023-01-08T13:22:39.185Z,75.89
2023-01-08T13:25:27.958Z,76.20
2023-01-08T13:28:00.819Z,76.23
2023-01-08T13:30:49.410Z,76.25
2023-01-08T13:33:40.863Z,75.25
2023-01-08T13:36:46.505Z,75.42
2023-01-08T13:39:26.643Z,76.18
2023-01-08T13:42:07.406Z,76.95
2023-01-08T13:44:44.581Z,76.52
2023-01-08T13:47:31.001Z,76.66
2023-01-08T13:50:08.049Z,77.04
2023-01-08T13:52:46.593Z,77.47
2023-01-08T13:55:23.383Z,77.85
2023-01-08T13:57:59.173Z,78.07
2023-01-08T14:00:35.162Z,77.76
2023-01-08T14:03:24.185Z,77.49
2023-01-08T14:06:12.450Z,77.66
2023-01-08T14:08:53.645Z,77.61
2023-01-08T14:11:29.432Z,78.26
2023-01-08T14:14:01.642Z,77.76
2023-01-08T14:16:34.384Z,77.57
2023-01-08T14:19:09.183Z,78.15
2023-01-08T14:21:41.570Z,78.82
2023-01-08T14:24:19.573Z,78.57
2023-01-08T14:26:56.672Z,77.98
2023-01-08T14:29:31.124Z,77.35
2023-01-08T14:32:04.744Z,79.34
2023-01-08T14:34:43.025Z,79.84
2023-01-08T14:37:17.671Z,78.97
2023-01-08T14:39:54.532Z,79.58
2023-01-08T14:42:50.643Z,79.18
2023-01-08T14:45:26.192Z,77.93
2023-01-08T14:48:02.867Z,78.15
2023-01-08T14:50:40.202Z,78.76
2023-01-08T14:53:23.356Z,79.45
2023-01-08T14:55:57.636Z,79.46
2023-01-08T14:58:33.000Z,79.61
2023-01-08T15:01:09.708Z,80.38
2023-01-08T15:03:44.465Z,80.82
2023-01-08T15:06:29.622Z,81.75
2023-01-08T15:09:02.941Z,80.98
2023-01-08T15:11:38.441Z,80.11
2023-01-08T15:14:23.490Z,80.92
2023-01-08T15:16:57.462Z,80.80
2023-01-08T15:19:32.221Z,80.52
2023-01-08T15:22:07.018Z,80.50
2023-01-08T15:24:41.666Z,80.93
2023-01-08T15:27:22.606Z,79.99
2023-01-08T15:30:00.587Z,81.12
2023-01-08T15:32:37.492Z,80.79
2023-01-08T15:35:17.667Z,82.17
2023-01-08T15:37:52.310Z,81.59
2023-01-08T15:40:24.420Z,81.39
2023-01-08T15:43:08.605Z,81.66
2023-01-08T15:45:42.732Z,81.44
2023-01-08T15:48:17.001Z,80.12
2023-01-08T15:50:49.415Z,80.35
2023-01-08T15:53:25.659Z,80.36
2023-01-08T15:55:58.368Z,80.82
2023-01-08T15:58:30.505Z,80.53
2023-01-08T16:01:03.067Z,80.92
2023-01-08T16:03:35.198Z,80.25
2023-01-08T16:06:09.937Z,80.78
2023-01-08T16:08:46.639Z,80.32
2023-01-08T16:11:20.891Z,80.44
2023-01-08T16:13:53.216Z,80.48
2023-01-08T16:16:41.615Z,80.28
2023-01-08T16:19:14.760Z,80.28
2023-01-08T16:21:48.665Z,79.95
2023-01-08T16:24:23.713Z,79.32
2023-01-08T16:26:56.627Z,79.61
2023-01-08T16:29:29.221Z,79.22
2023-01-08T16:32:02.138Z,79.50
2023-01-08T16:34:34.102Z,78.54
2023-01-08T16:37:06.904Z,79.84
2023-01-08T16:39:41.633Z,79.62
2023-01-08T16:42:13.884Z,79.71
2023-01-08T16:44:45.763Z,78.48
2023-01-08T16:47:18.420Z,78.57
2023-01-08T16:49:50.640Z,77.90
2023-01-08T16:52:23.090Z,79.26
2023-01-08T16:54:57.668Z,78.74
2023-01-08T16:57:36.102Z,78.59
2023-01-08T17:00:09.349Z,78.22
2023-01-08T17:02:41.543Z,79.42
2023-01-08T17:05:13.734Z,78.36
2023-01-08T17:07:45.921Z,78.48
2023-01-08T17:10:22.970Z,78.02
2023-01-08T17:12:55.322Z,78.86
2023-01-08T17:15:27.442Z,77.99
2023-01-08T17:17:59.785Z,77.69
2023-01-08T17:20:32.123Z,77.26
2023-01-08T17:23:04.481Z,76.89
2023-01-08T17:25:50.547Z,76.69
2023-01-08T17:28:25.379Z,78.19
2023-01-08T17:31:01.689Z,77.22
2023-01-08T17:33:35.365Z,78.10
2023-01-08T17:36:14.177Z,78.39
2023-01-08T17:38:55.234Z,78.24
2023-01-08T17:41:41.832Z,77.96
2023-01-08T17:44:16.281Z,78.20
2023-01-08T17:46:47.945Z,79.05
2023-01-08T17:49:20.857Z,79.45
2023-01-08T17:51:53.756Z,79.39
2023-01-08T17:57:22.048Z,79.24
2023-01-08T17:59:59.023Z,79.63
2023-01-08T18:02:36.543Z,79.62
2023-01-08T18:05:11.529Z,79.97
2023-01-08T18:07:43.080Z,79.87
2023-01-08T18:10:15.603Z,79.22
2023-01-08T18:12:51.279Z,78.73
2023-01-08T18:15:31.153Z,78.22
2023-01-08T18:18:03.569Z,79.32
2023-01-08T18:20:35.866Z,79.55
2023-01-08T18:23:07.920Z,78.78
2023-01-08T18:25:43.440Z,78.93
2023-01-08T18:28:18.142Z,78.06
2023-01-08T18:30:50.456Z,78.18
2023-01-08T18:33:23.302Z,78.78
2023-01-08T18:35:55.842Z,78.63
2023-01-08T18:38:28.106Z,78.68
2023-01-08T18:41:01.931Z,79.13
2023-01-08T18:43:38.352Z,79.45
2023-01-08T18:46:11.570Z,79.14
2023-01-08T18:48:43.942Z,79.46
2023-01-08T18:51:16.342Z,79.91
2023-01-08T18:53:48.542Z,80.14
2023-01-08T18:56:25.284Z,80.36
2023-01-08T18:59:01.181Z,81.49
2023-01-08T19:01:34.089Z,81.84
2023-01-08T19:04:07.209Z,82.34
2023-01-08T19:06:39.862Z,82.75
2023-01-08T19:09:12.222Z,82.91
2023-01-08T19:11:45.622Z,82.92
2023-01-08T19:14:20.830Z,82.59
2023-01-08T19:16:53.616Z,82.58
2023-01-08T19:19:25.945Z,82.21
2023-01-08T19:21:59.021Z,81.79
2023-01-08T19:24:41.411Z,81.79
2023-01-08T19:27:13.980Z,81.61
2023-01-08T19:29:49.165Z,81.25
2023-01-08T19:32:21.282Z,81.23
2023-01-08T19:34:53.903Z,80.99
2023-01-08T19:37:26.720Z,80.55
2023-01-08T19:40:01.860Z,80.38
2023-01-08T19:42:46.402Z,80.61
2023-01-08T19:45:22.190Z,80.19
2023-01-08T19:47:56.667Z,80.43
2023-01-08T19:50:30.821Z,81.68
2023-01-08T19:53:03.780Z,80.08
2023-01-08T19:55:38.083Z,80.56
2023-01-08T19:58:10.300Z,80.71
2023-01-08T20:00:45.089Z,80.49
2023-01-08T20:03:17.941Z,80.24
2023-01-08T20:05:50.003Z,79.29
2023-01-08T20:08:24.923Z,80.32
2023-01-08T20:10:57.029Z,80.91
2023-01-08T20:13:29.081Z,80.99
2023-01-08T20:16:03.821Z,80.49
2023-01-08T20:18:36.579Z,79.91
2023-01-08T20:21:10.965Z,79.73
2023-01-08T20:23:43.083Z,80.11
2023-01-08T20:26:18.311Z,80.37
2023-01-08T20:28:50.762Z,81.52
2023-01-08T20:31:29.734Z,82.20
2023-01-08T20:34:03.744Z,82.42
2023-01-08T20:36:37.253Z,82.07
2023-01-08T20:39:11.320Z,82.31
2023-01-08T20:41:50.079Z,82.53
2023-01-08T20:44:33.032Z,81.72
2023-01-08T20:47:07.680Z,80.71
2023-01-08T20:49:40.122Z,80.72
2023-01-08T20:52:12.242Z,81.03
2023-01-08T20:54:44.260Z,80.72
2023-01-08T20:57:15.984Z,79.98
2023-01-08T20:59:48.159Z,79.79
2023-01-08T21:02:22.893Z,79.53
2023-01-08T21:04:55.791Z,79.57
2023-01-08T21:07:30.220Z,79.55
2023-01-08T21:10:02.172Z,79.00
2023-01-08T21:12:37.920Z,79.68
2023-01-08T21:15:13.755Z,78.70
2023-01-08T21:17:49.181Z,79.17
2023-01-08T21:20:22.972Z,79.90
2023-01-08T21:22:54.762Z,79.43
2023-01-08T21:25:26.887Z,81.05
2023-01-08T21:27:58.800Z,81.38
2023-01-08T21:30:31.343Z,80.45
2023-01-08T21:33:06.092Z,80.49
2023-01-08T21:35:39.142Z,79.99
2023-01-08T21:38:11.362Z,80.72
2023-01-08T21:40:45.080Z,81.00
2023-01-08T21:43:29.723Z,81.91
2023-01-08T21:46:05.144Z,82.07
2023-01-08T21:48:40.001Z,79.98
2023-01-08T21:51:32.922Z,81.16
2023-01-08T21:54:02.325Z,80.90
2023-01-08T21:56:34.944Z,80.26
2023-01-08T21:59:07.120Z,80.79
2023-01-08T22:01:39.757Z,79.87
2023-01-08T22:04:14.862Z,79.37
2023-01-08T22:06:47.790Z,79.05
2023-01-08T22:09:20.141Z,79.53
2023-01-08T22:11:52.323Z,79.05
2023-01-08T22:14:24.422Z,78.26
2023-01-08T22:16:56.862Z,78.56
2023-01-08T22:19:31.704Z,77.69
2023-01-08T22:22:03.961Z,78.85
2023-01-08T22:24:36.120Z,77.75
2023-01-08T22:27:08.518Z,77.58
2023-01-08T22:29:41.001Z,78.30
2023-01-08T22:32:13.037Z,77.61
2023-01-08T22:34:47.624Z,76.96
2023-01-08T22:37:22.143Z,76.99
2023-01-08T22:39:54.661Z,76.17
2023-01-08T22:42:27.322Z,75.91
2023-01-08T22:44:59.623Z,75.64
2023-01-08T22:47:31.788Z,75.67
2023-01-08T22:50:06.621Z,76.71
2023-01-08T22:52:39.004Z,76.49
2023-01-08T22:58:00.985Z,76.74
2023-01-08T23:00:33.120Z,77.73
2023-01-08T23:03:13.982Z,77.54
2023-01-08T23:05:49.161Z,77.89
2023-01-08T23:08:21.382Z,78.35
2023-01-08T23:10:57.681Z,77.80
2023-01-08T23:13:29.822Z,77.03
2023-01-08T23:16:01.952Z,77.31
2023-01-08T23:18:34.464Z,77.30
2023-01-08T23:21:10.745Z,77.65
2023-01-08T23:23:43.263Z,77.43
2023-01-08T23:26:19.025Z,77.37
2023-01-08T23:28:52.266Z,78.08
2023-01-08T23:31:26.754Z,77.61
2023-01-08T23:33:59.084Z,78.58
2023-01-08T23:36:34.066Z,79.10
2023-01-08T23:39:06.934Z,79.01
2023-01-08T23:41:39.132Z,78.79
2023-01-08T23:44:14.177Z,78.73
2023-01-08T23:46:46.227Z,78.41
2023-01-08T23:49:18.523Z,77.72
2023-01-08T23:51:53.142Z,77.58
2023-01-08T23:54:25.662Z,78.01
2023-01-08T23:56:58.104Z,78.26
2023-01-08T23:59:30.427Z,78.17
